sensor_id;sensor_type;location;lat;lon;timestamp;P1;durP1;ratioP1;P2;durP2;ratioP2
12290;SDS011;6208;48.956;9.076;2023-06-26T00:00:47;7.10;;;6.50;;
12290;SDS011;6208;48.956;9.076;2023-06-26T00:03:32;7.18;;;6.47;;
12290;SDS011;6208;48.956;9.076;2023-06-26T00:06:16;6.72;;;6.25;;
12290;SDS011;6208;48.956;9.076;2023-06-26T00:09:01;7.03;;;6.32;;
12290;SDS011;6208;48.956;9.076;2023-06-26T00:11:45;7.50;;;6.80;;
12290;SDS011;6208;48.956;9.076;2023-06-26T00:14:29;7.80;;;7.10;;
12290;SDS011;6208;48.956;9.076;2023-06-26T00:17:14;7.15;;;6.55;;
12290;SDS011;6208;48.956;9.076;2023-06-26T00:19:58;5.95;;;5.45;;
12290;SDS011;6208;48.956;9.076;2023-06-26T00:22:43;7.38;;;6.78;;
12290;SDS011;6208;48.956;9.076;2023-06-26T00:25:28;7.25;;;6.65;;
12290;SDS011;6208;48.956;9.076;2023-06-26T00:28:13;7.65;;;6.93;;
12290;SDS011;6208;48.956;9.076;2023-06-26T00:30:57;7.75;;;6.93;;
12290;SDS011;6208;48.956;9.076;2023-06-26T00:33:42;7.60;;;6.90;;
12290;SDS011;6208;48.956;9.076;2023-06-26T00:36:27;7.55;;;6.95;;
12290;SDS011;6208;48.956;9.076;2023-06-26T00:39:11;7.53;;;6.82;;
12290;SDS011;6208;48.956;9.076;2023-06-26T00:41:56;8.38;;;7.55;;
12290;SDS011;6208;48.956;9.076;2023-06-26T00:44:40;7.60;;;6.90;;
12290;SDS011;6208;48.956;9.076;2023-06-26T00:47:25;7.80;;;6.88;;
12290;SDS011;6208;48.956;9.076;2023-06-26T00:50:10;8.70;;;7.80;;
12290;SDS011;6208;48.956;9.076;2023-06-26T00:52:54;8.18;;;7.32;;
12290;SDS011;6208;48.956;9.076;2023-06-26T00:55:44;7.45;;;6.85;;
12290;SDS011;6208;48.956;9.076;2023-06-26T00:58:30;7.85;;;7.07;;
12290;SDS011;6208;48.956;9.076;2023-06-26T01:01:15;8.80;;;8.00;;
12290;SDS011;6208;48.956;9.076;2023-06-26T01:04:01;7.82;;;7.13;;
12290;SDS011;6208;48.956;9.076;2023-06-26T01:06:46;7.65;;;6.95;;
12290;SDS011;6208;48.956;9.076;2023-06-26T01:09:35;7.40;;;6.80;;
12290;SDS011;6208;48.956;9.076;2023-06-26T01:12:20;8.63;;;7.38;;
12290;SDS011;6208;48.956;9.076;2023-06-26T01:15:05;7.70;;;6.93;;
12290;SDS011;6208;48.956;9.076;2023-06-26T01:17:50;7.50;;;6.88;;
12290;SDS011;6208;48.956;9.076;2023-06-26T01:20:36;8.38;;;7.10;;
12290;SDS011;6208;48.956;9.076;2023-06-26T01:26:19;8.38;;;7.50;;
12290;SDS011;6208;48.956;9.076;2023-06-26T01:29:06;8.10;;;7.40;;
12290;SDS011;6208;48.956;9.076;2023-06-26T01:31:51;9.35;;;7.85;;
12290;SDS011;6208;48.956;9.076;2023-06-26T01:34:35;7.70;;;7.00;;
12290;SDS011;6208;48.956;9.076;2023-06-26T01:37:20;8.20;;;7.50;;
12290;SDS011;6208;48.956;9.076;2023-06-26T01:40:05;8.40;;;7.60;;
12290;SDS011;6208;48.956;9.076;2023-06-26T01:42:50;8.45;;;7.75;;
12290;SDS011;6208;48.956;9.076;2023-06-26T01:45:35;8.40;;;7.45;;
12290;SDS011;6208;48.956;9.076;2023-06-26T01:48:21;8.80;;;7.95;;
12290;SDS011;6208;48.956;9.076;2023-06-26T01:51:09;8.80;;;7.97;;
12290;SDS011;6208;48.956;9.076;2023-06-26T01:53:55;8.48;;;7.65;;
12290;SDS011;6208;48.956;9.076;2023-06-26T01:56:41;10.43;;;7.55;;
12290;SDS011;6208;48.956;9.076;2023-06-26T01:59:27;9.02;;;8.13;;
12290;SDS011;6208;48.956;9.076;2023-06-26T02:02:13;8.18;;;7.47;;
12290;SDS011;6208;48.956;9.076;2023-06-26T02:04:57;8.82;;;7.32;;
12290;SDS011;6208;48.956;9.076;2023-06-26T02:07:42;9.00;;;7.43;;
12290;SDS011;6208;48.956;9.076;2023-06-26T02:10:27;8.57;;;7.68;;
12290;SDS011;6208;48.956;9.076;2023-06-26T02:13:12;8.02;;;7.22;;
12290;SDS011;6208;48.956;9.076;2023-06-26T02:15:56;8.05;;;7.32;;
12290;SDS011;6208;48.956;9.076;2023-06-26T02:18:41;8.43;;;7.65;;
12290;SDS011;6208;48.956;9.076;2023-06-26T02:21:26;8.85;;;7.95;;
12290;SDS011;6208;48.956;9.076;2023-06-26T02:24:10;8.18;;;7.38;;
12290;SDS011;6208;48.956;9.076;2023-06-26T02:26:55;8.73;;;7.82;;
12290;SDS011;6208;48.956;9.076;2023-06-26T02:29:41;9.70;;;7.60;;
12290;SDS011;6208;48.956;9.076;2023-06-26T02:32:25;9.20;;;7.82;;
12290;SDS011;6208;48.956;9.076;2023-06-26T02:35:10;10.15;;;7.55;;
12290;SDS011;6208;48.956;9.076;2023-06-26T02:37:54;10.20;;;7.63;;
12290;SDS011;6208;48.956;9.076;2023-06-26T02:40:39;8.00;;;7.30;;
12290;SDS011;6208;48.956;9.076;2023-06-26T02:43:23;9.48;;;8.15;;
12290;SDS011;6208;48.956;9.076;2023-06-26T02:46:08;8.43;;;7.63;;
12290;SDS011;6208;48.956;9.076;2023-06-26T02:48:52;8.50;;;7.70;;
12290;SDS011;6208;48.956;9.076;2023-06-26T02:51:37;9.05;;;8.13;;
12290;SDS011;6208;48.956;9.076;2023-06-26T02:54:21;9.07;;;8.27;;
12290;SDS011;6208;48.956;9.076;2023-06-26T02:57:06;7.82;;;7.13;;
12290;SDS011;6208;48.956;9.076;2023-06-26T02:59:50;11.20;;;8.07;;
12290;SDS011;6208;48.956;9.076;2023-06-26T03:02:35;9.43;;;8.52;;
12290;SDS011;6208;48.956;9.076;2023-06-26T03:05:19;9.30;;;8.50;;
12290;SDS011;6208;48.956;9.076;2023-06-26T03:08:04;8.73;;;7.82;;
12290;SDS011;6208;48.956;9.076;2023-06-26T03:10:48;9.32;;;8.43;;
12290;SDS011;6208;48.956;9.076;2023-06-26T03:13:36;8.60;;;7.75;;
12290;SDS011;6208;48.956;9.076;2023-06-26T03:16:21;8.57;;;7.88;;
12290;SDS011;6208;48.956;9.076;2023-06-26T03:19:06;8.68;;;7.88;;
12290;SDS011;6208;48.956;9.076;2023-06-26T03:21:50;9.85;;;8.43;;
12290;SDS011;6208;48.956;9.076;2023-06-26T03:24:35;10.70;;;7.45;;
12290;SDS011;6208;48.956;9.076;2023-06-26T03:27:20;8.63;;;7.82;;
12290;SDS011;6208;48.956;9.076;2023-06-26T03:30:04;9.07;;;8.13;;
12290;SDS011;6208;48.956;9.076;2023-06-26T03:32:48;8.32;;;7.60;;
12290;SDS011;6208;48.956;9.076;2023-06-26T03:35:33;8.50;;;7.70;;
12290;SDS011;6208;48.956;9.076;2023-06-26T03:38:18;8.73;;;7.90;;
12290;SDS011;6208;48.956;9.076;2023-06-26T03:41:05;8.82;;;8.02;;
12290;SDS011;6208;48.956;9.076;2023-06-26T03:43:50;7.88;;;7.07;;
12290;SDS011;6208;48.956;9.076;2023-06-26T03:46:34;7.85;;;7.15;;
12290;SDS011;6208;48.956;9.076;2023-06-26T03:49:19;9.98;;;7.13;;
12290;SDS011;6208;48.956;9.076;2023-06-26T03:52:03;8.05;;;7.30;;
12290;SDS011;6208;48.956;9.076;2023-06-26T03:54:47;7.05;;;6.53;;
12290;SDS011;6208;48.956;9.076;2023-06-26T03:57:32;6.72;;;6.22;;
12290;SDS011;6208;48.956;9.076;2023-06-26T04:00:16;7.03;;;6.38;;
12290;SDS011;6208;48.956;9.076;2023-06-26T04:03:01;7.60;;;6.97;;
12290;SDS011;6208;48.956;9.076;2023-06-26T04:05:46;8.55;;;7.75;;
12290;SDS011;6208;48.956;9.076;2023-06-26T04:08:31;7.80;;;7.10;;
12290;SDS011;6208;48.956;9.076;2023-06-26T04:11:15;8.05;;;7.35;;
12290;SDS011;6208;48.956;9.076;2023-06-26T04:13:59;7.97;;;7.38;;
12290;SDS011;6208;48.956;9.076;2023-06-26T04:16:43;9.20;;;8.18;;
12290;SDS011;6208;48.956;9.076;2023-06-26T04:19:27;11.82;;;10.63;;
12290;SDS011;6208;48.956;9.076;2023-06-26T04:22:11;9.80;;;8.70;;
12290;SDS011;6208;48.956;9.076;2023-06-26T04:24:56;12.60;;;7.78;;
12290;SDS011;6208;48.956;9.076;2023-06-26T04:27:41;7.93;;;7.10;;
12290;SDS011;6208;48.956;9.076;2023-06-26T04:30:25;7.43;;;6.72;;
12290;SDS011;6208;48.956;9.076;2023-06-26T04:33:09;7.95;;;7.25;;
12290;SDS011;6208;48.956;9.076;2023-06-26T04:35:55;8.60;;;7.43;;
12290;SDS011;6208;48.956;9.076;2023-06-26T04:38:39;10.40;;;7.97;;
12290;SDS011;6208;48.956;9.076;2023-06-26T04:41:24;8.85;;;7.95;;
12290;SDS011;6208;48.956;9.076;2023-06-26T04:44:09;10.18;;;8.40;;
12290;SDS011;6208;48.956;9.076;2023-06-26T04:46:53;11.68;;;8.52;;
12290;SDS011;6208;48.956;9.076;2023-06-26T04:49:37;10.60;;;9.32;;
12290;SDS011;6208;48.956;9.076;2023-06-26T04:52:22;9.57;;;7.72;;
12290;SDS011;6208;48.956;9.076;2023-06-26T04:55:07;8.60;;;7.85;;
12290;SDS011;6208;48.956;9.076;2023-06-26T04:57:51;8.77;;;7.70;;
12290;SDS011;6208;48.956;9.076;2023-06-26T05:00:36;10.52;;;8.43;;
12290;SDS011;6208;48.956;9.076;2023-06-26T05:03:21;8.70;;;7.88;;
12290;SDS011;6208;48.956;9.076;2023-06-26T05:06:06;8.85;;;7.95;;
12290;SDS011;6208;48.956;9.076;2023-06-26T05:08:50;9.07;;;8.07;;
12290;SDS011;6208;48.956;9.076;2023-06-26T05:11:34;9.32;;;8.52;;
12290;SDS011;6208;48.956;9.076;2023-06-26T05:14:18;9.25;;;8.27;;
12290;SDS011;6208;48.956;9.076;2023-06-26T05:17:02;9.15;;;8.20;;
12290;SDS011;6208;48.956;9.076;2023-06-26T05:19:47;8.90;;;8.10;;
12290;SDS011;6208;48.956;9.076;2023-06-26T05:22:32;9.60;;;8.70;;
12290;SDS011;6208;48.956;9.076;2023-06-26T05:25:19;9.32;;;8.52;;
12290;SDS011;6208;48.956;9.076;2023-06-26T05:28:05;9.25;;;8.38;;
12290;SDS011;6208;48.956;9.076;2023-06-26T05:30:49;8.50;;;7.72;;
12290;SDS011;6208;48.956;9.076;2023-06-26T05:33:35;8.68;;;7.75;;
12290;SDS011;6208;48.956;9.076;2023-06-26T05:36:20;8.70;;;7.90;;
12290;SDS011;6208;48.956;9.076;2023-06-26T05:39:07;8.90;;;8.00;;
12290;SDS011;6208;48.956;9.076;2023-06-26T05:41:52;9.40;;;8.48;;
12290;SDS011;6208;48.956;9.076;2023-06-26T05:44:36;9.75;;;8.85;;
12290;SDS011;6208;48.956;9.076;2023-06-26T05:47:20;10.02;;;8.93;;
12290;SDS011;6208;48.956;9.076;2023-06-26T05:50:06;9.85;;;8.85;;
12290;SDS011;6208;48.956;9.076;2023-06-26T05:52:52;10.27;;;8.75;;
12290;SDS011;6208;48.956;9.076;2023-06-26T05:55:36;10.55;;;8.98;;
12290;SDS011;6208;48.956;9.076;2023-06-26T05:58:21;9.73;;;8.82;;
12290;SDS011;6208;48.956;9.076;2023-06-26T06:01:07;10.02;;;8.68;;
12290;SDS011;6208;48.956;9.076;2023-06-26T06:03:52;9.20;;;8.30;;
12290;SDS011;6208;48.956;9.076;2023-06-26T06:06:37;10.77;;;9.65;;
12290;SDS011;6208;48.956;9.076;2023-06-26T06:09:21;9.57;;;8.68;;
12290;SDS011;6208;48.956;9.076;2023-06-26T06:12:06;9.15;;;8.23;;
12290;SDS011;6208;48.956;9.076;2023-06-26T06:14:51;10.90;;;8.55;;
12290;SDS011;6208;48.956;9.076;2023-06-26T06:17:39;9.32;;;8.50;;
12290;SDS011;6208;48.956;9.076;2023-06-26T06:20:24;11.27;;;8.88;;
12290;SDS011;6208;48.956;9.076;2023-06-26T06:23:09;9.65;;;8.75;;
12290;SDS011;6208;48.956;9.076;2023-06-26T06:25:53;8.88;;;8.05;;
12290;SDS011;6208;48.956;9.076;2023-06-26T06:28:38;8.98;;;8.18;;
12290;SDS011;6208;48.956;9.076;2023-06-26T06:31:23;10.68;;;8.57;;
12290;SDS011;6208;48.956;9.076;2023-06-26T06:34:08;9.48;;;8.57;;
12290;SDS011;6208;48.956;9.076;2023-06-26T06:36:52;9.38;;;8.20;;
12290;SDS011;6208;48.956;9.076;2023-06-26T06:39:36;11.07;;;9.05;;
12290;SDS011;6208;48.956;9.076;2023-06-26T06:42:21;9.55;;;8.48;;
12290;SDS011;6208;48.956;9.076;2023-06-26T06:45:06;7.65;;;6.90;;
12290;SDS011;6208;48.956;9.076;2023-06-26T06:47:50;9.82;;;8.20;;
12290;SDS011;6208;48.956;9.076;2023-06-26T06:50:35;8.30;;;7.60;;
12290;SDS011;6208;48.956;9.076;2023-06-26T06:53:19;8.27;;;7.47;;
12290;SDS011;6208;48.956;9.076;2023-06-26T06:56:06;8.13;;;7.35;;
12290;SDS011;6208;48.956;9.076;2023-06-26T06:58:50;8.40;;;7.70;;
12290;SDS011;6208;48.956;9.076;2023-06-26T07:01:35;9.05;;;8.18;;
12290;SDS011;6208;48.956;9.076;2023-06-26T07:04:19;8.07;;;7.18;;
12290;SDS011;6208;48.956;9.076;2023-06-26T07:07:04;8.02;;;6.88;;
12290;SDS011;6208;48.956;9.076;2023-06-26T07:09:48;7.38;;;6.63;;
12290;SDS011;6208;48.956;9.076;2023-06-26T07:12:33;7.78;;;7.07;;
12290;SDS011;6208;48.956;9.076;2023-06-26T07:15:17;7.03;;;6.43;;
12290;SDS011;6208;48.956;9.076;2023-06-26T07:18:02;7.38;;;6.78;;
12290;SDS011;6208;48.956;9.076;2023-06-26T07:20:46;7.60;;;7.00;;
12290;SDS011;6208;48.956;9.076;2023-06-26T07:23:30;7.38;;;6.78;;
12290;SDS011;6208;48.956;9.076;2023-06-26T07:26:14;7.80;;;6.63;;
12290;SDS011;6208;48.956;9.076;2023-06-26T07:28:59;7.57;;;6.93;;
12290;SDS011;6208;48.956;9.076;2023-06-26T07:31:44;7.50;;;6.80;;
12290;SDS011;6208;48.956;9.076;2023-06-26T07:34:29;6.80;;;6.30;;
12290;SDS011;6208;48.956;9.076;2023-06-26T07:37:13;8.57;;;6.63;;
12290;SDS011;6208;48.956;9.076;2023-06-26T07:39:57;7.38;;;6.78;;
12290;SDS011;6208;48.956;9.076;2023-06-26T07:42:42;7.22;;;6.63;;
12290;SDS011;6208;48.956;9.076;2023-06-26T07:45:26;7.03;;;6.40;;
12290;SDS011;6208;48.956;9.076;2023-06-26T07:48:35;7.18;;;6.55;;
12290;SDS011;6208;48.956;9.076;2023-06-26T07:51:19;7.05;;;6.47;;
12290;SDS011;6208;48.956;9.076;2023-06-26T07:54:04;6.85;;;6.32;;
12290;SDS011;6208;48.956;9.076;2023-06-26T07:56:58;6.43;;;5.95;;
12290;SDS011;6208;48.956;9.076;2023-06-26T07:59:44;6.85;;;6.30;;
12290;SDS011;6208;48.956;9.076;2023-06-26T08:02:29;7.50;;;6.18;;
12290;SDS011;6208;48.956;9.076;2023-06-26T08:05:14;5.97;;;5.47;;
12290;SDS011;6208;48.956;9.076;2023-06-26T08:07:58;8.10;;;6.15;;
12290;SDS011;6208;48.956;9.076;2023-06-26T08:10:43;6.68;;;6.18;;
12290;SDS011;6208;48.956;9.076;2023-06-26T08:13:28;6.60;;;6.00;;
12290;SDS011;6208;48.956;9.076;2023-06-26T08:16:12;6.13;;;5.72;;
12290;SDS011;6208;48.956;9.076;2023-06-26T08:18:57;6.57;;;6.05;;
12290;SDS011;6208;48.956;9.076;2023-06-26T08:21:42;6.93;;;5.72;;
12290;SDS011;6208;48.956;9.076;2023-06-26T08:24:27;6.00;;;5.50;;
12290;SDS011;6208;48.956;9.076;2023-06-26T08:27:12;5.63;;;5.22;;
12290;SDS011;6208;48.956;9.076;2023-06-26T08:29:56;6.75;;;5.20;;
12290;SDS011;6208;48.956;9.076;2023-06-26T08:32:41;6.50;;;5.90;;
12290;SDS011;6208;48.956;9.076;2023-06-26T08:35:25;5.55;;;5.15;;
12290;SDS011;6208;48.956;9.076;2023-06-26T08:38:09;6.82;;;6.10;;
12290;SDS011;6208;48.956;9.076;2023-06-26T08:40:54;5.18;;;4.88;;
12290;SDS011;6208;48.956;9.076;2023-06-26T08:43:39;5.45;;;4.85;;
12290;SDS011;6208;48.956;9.076;2023-06-26T08:46:23;5.50;;;5.10;;
12290;SDS011;6208;48.956;9.076;2023-06-26T08:49:12;5.05;;;4.75;;
12290;SDS011;6208;48.956;9.076;2023-06-26T08:52:02;5.50;;;5.00;;
12290;SDS011;6208;48.956;9.076;2023-06-26T08:54:59;5.20;;;4.80;;
12290;SDS011;6208;48.956;9.076;2023-06-26T08:57:50;5.80;;;5.20;;
12290;SDS011;6208;48.956;9.076;2023-06-26T09:00:36;7.60;;;5.32;;
12290;SDS011;6208;48.956;9.076;2023-06-26T09:03:21;6.03;;;4.55;;
12290;SDS011;6208;48.956;9.076;2023-06-26T09:06:06;5.57;;;4.45;;
12290;SDS011;6208;48.956;9.076;2023-06-26T09:08:51;5.50;;;5.10;;
12290;SDS011;6208;48.956;9.076;2023-06-26T09:11:36;5.13;;;4.63;;
12290;SDS011;6208;48.956;9.076;2023-06-26T09:14:21;5.07;;;4.68;;
12290;SDS011;6208;48.956;9.076;2023-06-26T09:17:05;8.43;;;4.95;;
12290;SDS011;6208;48.956;9.076;2023-06-26T09:19:50;5.30;;;4.88;;
12290;SDS011;6208;48.956;9.076;2023-06-26T09:22:38;5.03;;;4.47;;
12290;SDS011;6208;48.956;9.076;2023-06-26T09:25:24;5.18;;;4.75;;
12290;SDS011;6208;48.956;9.076;2023-06-26T09:28:09;5.75;;;5.25;;
12290;SDS011;6208;48.956;9.076;2023-06-26T09:30:54;5.35;;;4.95;;
12290;SDS011;6208;48.956;9.076;2023-06-26T09:33:38;5.28;;;4.90;;
12290;SDS011;6208;48.956;9.076;2023-06-26T09:36:27;5.22;;;4.93;;
12290;SDS011;6208;48.956;9.076;2023-06-26T09:39:12;5.13;;;4.70;;
12290;SDS011;6208;48.956;9.076;2023-06-26T09:41:58;5.45;;;4.95;;
12290;SDS011;6208;48.956;9.076;2023-06-26T09:44:43;6.57;;;5.20;;
12290;SDS011;6208;48.956;9.076;2023-06-26T09:47:32;5.63;;;5.22;;
12290;SDS011;6208;48.956;9.076;2023-06-26T09:50:21;6.07;;;5.53;;
12290;SDS011;6208;48.956;9.076;2023-06-26T09:53:07;5.18;;;4.70;;
12290;SDS011;6208;48.956;9.076;2023-06-26T09:56:11;5.57;;;5.18;;
12290;SDS011;6208;48.956;9.076;2023-06-26T09:59:03;5.40;;;4.90;;
12290;SDS011;6208;48.956;9.076;2023-06-26T10:01:48;5.63;;;5.07;;
12290;SDS011;6208;48.956;9.076;2023-06-26T10:04:43;5.68;;;5.32;;
12290;SDS011;6208;48.956;9.076;2023-06-26T10:07:28;5.50;;;5.10;;
12290;SDS011;6208;48.956;9.076;2023-06-26T10:10:12;5.88;;;5.35;;
12290;SDS011;6208;48.956;9.076;2023-06-26T10:13:01;5.65;;;5.07;;
12290;SDS011;6208;48.956;9.076;2023-06-26T10:15:54;5.25;;;4.85;;
12290;SDS011;6208;48.956;9.076;2023-06-26T10:18:40;5.97;;;5.47;;
12290;SDS011;6208;48.956;9.076;2023-06-26T10:21:25;5.30;;;4.90;;
12290;SDS011;6208;48.956;9.076;2023-06-26T10:24:12;6.03;;;5.57;;
12290;SDS011;6208;48.956;9.076;2023-06-26T10:26:59;6.10;;;5.70;;
12290;SDS011;6208;48.956;9.076;2023-06-26T10:29:59;6.32;;;5.28;;
12290;SDS011;6208;48.956;9.076;2023-06-26T10:32:46;6.75;;;6.13;;
12290;SDS011;6208;48.956;9.076;2023-06-26T10:35:31;6.15;;;5.65;;
12290;SDS011;6208;48.956;9.076;2023-06-26T10:38:16;6.20;;;5.63;;
12290;SDS011;6208;48.956;9.076;2023-06-26T10:41:09;5.60;;;5.20;;
12290;SDS011;6208;48.956;9.076;2023-06-26T10:49:36;7.18;;;5.85;;
12290;SDS011;6208;48.956;9.076;2023-06-26T10:52:25;6.82;;;5.82;;
12290;SDS011;6208;48.956;9.076;2023-06-26T10:55:10;6.15;;;5.55;;
12290;SDS011;6208;48.956;9.076;2023-06-26T10:57:54;6.10;;;5.25;;
12290;SDS011;6208;48.956;9.076;2023-06-26T11:00:45;6.50;;;5.43;;
12290;SDS011;6208;48.956;9.076;2023-06-26T11:03:33;6.10;;;5.60;;
12290;SDS011;6208;48.956;9.076;2023-06-26T11:06:21;6.07;;;5.57;;
12290;SDS011;6208;48.956;9.076;2023-06-26T11:09:06;6.32;;;5.82;;
12290;SDS011;6208;48.956;9.076;2023-06-26T11:11:55;5.70;;;5.25;;
12290;SDS011;6208;48.956;9.076;2023-06-26T11:14:48;5.85;;;5.35;;
12290;SDS011;6208;48.956;9.076;2023-06-26T11:17:33;6.07;;;5.57;;
12290;SDS011;6208;48.956;9.076;2023-06-26T11:20:18;5.90;;;5.50;;
12290;SDS011;6208;48.956;9.076;2023-06-26T11:23:03;6.47;;;5.90;;
12290;SDS011;6208;48.956;9.076;2023-06-26T11:25:50;6.10;;;5.55;;
12290;SDS011;6208;48.956;9.076;2023-06-26T11:28:34;6.00;;;5.60;;
12290;SDS011;6208;48.956;9.076;2023-06-26T11:31:25;6.75;;;5.60;;
12290;SDS011;6208;48.956;9.076;2023-06-26T11:34:12;5.50;;;5.10;;
12290;SDS011;6208;48.956;9.076;2023-06-26T11:36:57;6.38;;;5.88;;
12290;SDS011;6208;48.956;9.076;2023-06-26T11:39:45;14.27;;;6.00;;
12290;SDS011;6208;48.956;9.076;2023-06-26T11:42:29;6.30;;;5.75;;
12290;SDS011;6208;48.956;9.076;2023-06-26T11:45:14;6.85;;;6.25;;
12290;SDS011;6208;48.956;9.076;2023-06-26T11:47:58;6.78;;;6.18;;
12290;SDS011;6208;48.956;9.076;2023-06-26T11:50:43;6.20;;;5.43;;
12290;SDS011;6208;48.956;9.076;2023-06-26T11:53:28;7.10;;;6.50;;
12290;SDS011;6208;48.956;9.076;2023-06-26T11:56:14;6.25;;;5.75;;
12290;SDS011;6208;48.956;9.076;2023-06-26T11:59:01;6.05;;;5.55;;
12290;SDS011;6208;48.956;9.076;2023-06-26T12:01:49;6.15;;;5.68;;
12290;SDS011;6208;48.956;9.076;2023-06-26T12:04:38;5.72;;;5.32;;
12290;SDS011;6208;48.956;9.076;2023-06-26T12:07:25;6.22;;;5.72;;
12290;SDS011;6208;48.956;9.076;2023-06-26T12:10:10;6.28;;;5.78;;
12290;SDS011;6208;48.956;9.076;2023-06-26T12:12:55;9.50;;;5.53;;
12290;SDS011;6208;48.956;9.076;2023-06-26T12:15:42;5.95;;;5.53;;
12290;SDS011;6208;48.956;9.076;2023-06-26T12:18:32;6.70;;;6.00;;
12290;SDS011;6208;48.956;9.076;2023-06-26T12:21:33;7.03;;;6.18;;
12290;SDS011;6208;48.956;9.076;2023-06-26T12:24:29;6.47;;;5.30;;
12290;SDS011;6208;48.956;9.076;2023-06-26T12:27:14;6.78;;;5.60;;
12290;SDS011;6208;48.956;9.076;2023-06-26T12:29:59;6.07;;;5.68;;
12290;SDS011;6208;48.956;9.076;2023-06-26T12:32:47;6.53;;;6.00;;
12290;SDS011;6208;48.956;9.076;2023-06-26T12:35:33;6.20;;;5.60;;
12290;SDS011;6208;48.956;9.076;2023-06-26T12:38:17;6.05;;;5.45;;
12290;SDS011;6208;48.956;9.076;2023-06-26T12:41:04;14.00;;;5.97;;
12290;SDS011;6208;48.956;9.076;2023-06-26T12:43:48;8.15;;;5.10;;
12290;SDS011;6208;48.956;9.076;2023-06-26T12:46:34;6.10;;;5.60;;
12290;SDS011;6208;48.956;9.076;2023-06-26T12:49:43;5.70;;;5.30;;
12290;SDS011;6208;48.956;9.076;2023-06-26T12:52:27;5.97;;;5.47;;
12290;SDS011;6208;48.956;9.076;2023-06-26T12:55:12;5.90;;;5.47;;
12290;SDS011;6208;48.956;9.076;2023-06-26T12:57:56;6.38;;;5.80;;
12290;SDS011;6208;48.956;9.076;2023-06-26T13:00:41;6.30;;;5.70;;
12290;SDS011;6208;48.956;9.076;2023-06-26T13:03:26;5.68;;;5.18;;
12290;SDS011;6208;48.956;9.076;2023-06-26T13:06:10;6.65;;;5.75;;
12290;SDS011;6208;48.956;9.076;2023-06-26T13:08:57;5.13;;;4.70;;
12290;SDS011;6208;48.956;9.076;2023-06-26T13:11:42;5.43;;;4.95;;
12290;SDS011;6208;48.956;9.076;2023-06-26T13:14:27;5.03;;;4.72;;
12290;SDS011;6208;48.956;9.076;2023-06-26T13:17:11;5.05;;;4.50;;
12290;SDS011;6208;48.956;9.076;2023-06-26T13:19:56;4.80;;;4.38;;
12290;SDS011;6208;48.956;9.076;2023-06-26T13:22:41;5.03;;;4.63;;
12290;SDS011;6208;48.956;9.076;2023-06-26T13:25:26;4.38;;;4.13;;
12290;SDS011;6208;48.956;9.076;2023-06-26T13:28:10;4.78;;;4.38;;
12290;SDS011;6208;48.956;9.076;2023-06-26T13:30:55;4.75;;;4.45;;
12290;SDS011;6208;48.956;9.076;2023-06-26T13:33:39;4.93;;;4.45;;
12290;SDS011;6208;48.956;9.076;2023-06-26T13:36:24;4.07;;;3.72;;
12290;SDS011;6208;48.956;9.076;2023-06-26T13:39:09;4.10;;;3.83;;
12290;SDS011;6208;48.956;9.076;2023-06-26T13:41:54;3.83;;;3.63;;
12290;SDS011;6208;48.956;9.076;2023-06-26T13:44:38;5.55;;;3.80;;
12290;SDS011;6208;48.956;9.076;2023-06-26T13:47:23;4.95;;;3.88;;
12290;SDS011;6208;48.956;9.076;2023-06-26T13:50:08;3.78;;;3.58;;
12290;SDS011;6208;48.956;9.076;2023-06-26T13:52:53;4.03;;;3.63;;
12290;SDS011;6208;48.956;9.076;2023-06-26T13:55:37;4.90;;;3.88;;
12290;SDS011;6208;48.956;9.076;2023-06-26T13:58:22;9.10;;;5.03;;
12290;SDS011;6208;48.956;9.076;2023-06-26T14:01:10;4.50;;;4.10;;
12290;SDS011;6208;48.956;9.076;2023-06-26T14:03:54;4.60;;;4.22;;
12290;SDS011;6208;48.956;9.076;2023-06-26T14:06:39;4.40;;;4.10;;
12290;SDS011;6208;48.956;9.076;2023-06-26T14:09:23;4.35;;;3.95;;
12290;SDS011;6208;48.956;9.076;2023-06-26T14:12:08;3.90;;;3.60;;
12290;SDS011;6208;48.956;9.076;2023-06-26T14:14:53;3.72;;;3.53;;
12290;SDS011;6208;48.956;9.076;2023-06-26T14:17:37;6.03;;;3.13;;
12290;SDS011;6208;48.956;9.076;2023-06-26T14:20:24;4.82;;;3.40;;
12290;SDS011;6208;48.956;9.076;2023-06-26T14:23:08;3.88;;;3.58;;
12290;SDS011;6208;48.956;9.076;2023-06-26T14:25:53;4.07;;;3.58;;
12290;SDS011;6208;48.956;9.076;2023-06-26T14:28:38;4.30;;;3.90;;
12290;SDS011;6208;48.956;9.076;2023-06-26T14:31:22;4.03;;;3.47;;
12290;SDS011;6208;48.956;9.076;2023-06-26T14:34:07;3.35;;;3.15;;
12290;SDS011;6208;48.956;9.076;2023-06-26T14:36:52;6.07;;;3.53;;
12290;SDS011;6208;48.956;9.076;2023-06-26T14:39:36;4.90;;;3.58;;
12290;SDS011;6208;48.956;9.076;2023-06-26T14:42:21;3.70;;;3.38;;
12290;SDS011;6208;48.956;9.076;2023-06-26T14:45:06;4.47;;;3.60;;
12290;SDS011;6208;48.956;9.076;2023-06-26T14:47:51;3.80;;;3.60;;
12290;SDS011;6208;48.956;9.076;2023-06-26T14:50:36;3.95;;;3.38;;
12290;SDS011;6208;48.956;9.076;2023-06-26T14:53:20;4.13;;;3.78;;
12290;SDS011;6208;48.956;9.076;2023-06-26T14:56:05;4.90;;;4.40;;
12290;SDS011;6208;48.956;9.076;2023-06-26T14:58:51;5.00;;;4.60;;
12290;SDS011;6208;48.956;9.076;2023-06-26T15:01:36;5.55;;;4.43;;
12290;SDS011;6208;48.956;9.076;2023-06-26T15:04:21;4.55;;;4.05;;
12290;SDS011;6208;48.956;9.076;2023-06-26T15:07:06;5.88;;;4.38;;
12290;SDS011;6208;48.956;9.076;2023-06-26T15:09:50;7.68;;;4.90;;
12290;SDS011;6208;48.956;9.076;2023-06-26T15:12:35;5.30;;;4.80;;
12290;SDS011;6208;48.956;9.076;2023-06-26T15:15:19;5.25;;;4.85;;
12290;SDS011;6208;48.956;9.076;2023-06-26T15:18:04;5.50;;;5.07;;
12290;SDS011;6208;48.956;9.076;2023-06-26T15:20:49;6.20;;;5.70;;
12290;SDS011;6208;48.956;9.076;2023-06-26T15:23:34;6.05;;;5.55;;
12290;SDS011;6208;48.956;9.076;2023-06-26T15:26:19;8.20;;;5.97;;
12290;SDS011;6208;48.956;9.076;2023-06-26T15:29:03;5.95;;;5.35;;
12290;SDS011;6208;48.956;9.076;2023-06-26T15:31:47;6.00;;;5.47;;
12290;SDS011;6208;48.956;9.076;2023-06-26T15:34:32;6.60;;;5.82;;
12290;SDS011;6208;48.956;9.076;2023-06-26T15:37:16;6.15;;;5.57;;
12290;SDS011;6208;48.956;9.076;2023-06-26T15:40:01;6.70;;;5.50;;
12290;SDS011;6208;48.956;9.076;2023-06-26T15:42:46;5.90;;;5.10;;
12290;SDS011;6208;48.956;9.076;2023-06-26T15:45:31;6.60;;;5.90;;
12290;SDS011;6208;48.956;9.076;2023-06-26T15:48:16;6.10;;;5.60;;
12290;SDS011;6208;48.956;9.076;2023-06-26T15:51:01;6.35;;;5.85;;
12290;SDS011;6208;48.956;9.076;2023-06-26T15:53:45;5.88;;;5.30;;
12290;SDS011;6208;48.956;9.076;2023-06-26T15:56:30;7.63;;;5.57;;
12290;SDS011;6208;48.956;9.076;2023-06-26T15:59:14;6.22;;;5.50;;
12290;SDS011;6208;48.956;9.076;2023-06-26T16:02:02;6.97;;;5.55;;
12290;SDS011;6208;48.956;9.076;2023-06-26T16:04:46;6.78;;;5.00;;
12290;SDS011;6208;48.956;9.076;2023-06-26T16:07:31;5.30;;;4.88;;
12290;SDS011;6208;48.956;9.076;2023-06-26T16:10:15;7.22;;;5.28;;
12290;SDS011;6208;48.956;9.076;2023-06-26T16:13:00;5.70;;;5.10;;
12290;SDS011;6208;48.956;9.076;2023-06-26T16:15:45;5.80;;;4.85;;
12290;SDS011;6208;48.956;9.076;2023-06-26T16:18:30;4.00;;;3.70;;
12290;SDS011;6208;48.956;9.076;2023-06-26T16:21:14;6.47;;;4.50;;
12290;SDS011;6208;48.956;9.076;2023-06-26T16:23:59;5.93;;;3.30;;
12290;SDS011;6208;48.956;9.076;2023-06-26T16:26:44;5.88;;;3.20;;
12290;SDS011;6208;48.956;9.076;2023-06-26T16:29:29;2.75;;;2.55;;
12290;SDS011;6208;48.956;9.076;2023-06-26T16:32:13;3.20;;;2.83;;
12290;SDS011;6208;48.956;9.076;2023-06-26T16:34:57;3.10;;;2.83;;
12290;SDS011;6208;48.956;9.076;2023-06-26T16:37:42;2.65;;;2.35;;
12290;SDS011;6208;48.956;9.076;2023-06-26T16:40:27;3.75;;;2.47;;
12290;SDS011;6208;48.956;9.076;2023-06-26T16:43:12;5.18;;;1.95;;
12290;SDS011;6208;48.956;9.076;2023-06-26T16:45:57;2.78;;;1.85;;
12290;SDS011;6208;48.956;9.076;2023-06-26T16:48:41;3.30;;;2.05;;
12290;SDS011;6208;48.956;9.076;2023-06-26T16:51:25;2.80;;;2.60;;
12290;SDS011;6208;48.956;9.076;2023-06-26T16:54:10;3.55;;;2.10;;
12290;SDS011;6208;48.956;9.076;2023-06-26T16:56:54;2.17;;;1.98;;
12290;SDS011;6208;48.956;9.076;2023-06-26T16:59:41;2.42;;;1.83;;